Time;durP1;ratioP1;P1;durP2;ratioP2;P2;SDS_P1;SDS_P2;PMS_P1;PMS_P2;Temp;Humidity;BMP_temperature;BMP_pressure;BME280_temperature;BME280_humidity;BME280_pressure;Samples;Min_cycle;Max_cycle;Signal;HPM_P1;HPM_P2
2022/06/19 00:01:18;;;;;;;9.68;2.78;;;22.80;63.00;;;;;;4982201;28;20072;-86
2022/06/19 00:03:52;;;;;;;13.48;2.55;;;22.80;63.20;;;;;;4962377;28;20031;-86
2022/06/19 00:06:18;;;;;;;8.30;2.40;;;22.70;63.10;;;;;;4975157;28;20049;-85
2022/06/19 00:08:45;;;;;;;10.50;2.40;;;22.70;63.20;;;;;;4973071;28;20019;-86
2022/06/19 00:11:12;;;;;;;14.63;3.03;;;22.60;63.40;;;;;;4970832;28;20026;-86
2022/06/19 00:13:38;;;;;;;9.93;2.50;;;22.60;63.30;;;;;;4982812;28;20046;-86
2022/06/19 00:16:04;;;;;;;11.68;2.58;;;22.60;63.50;;;;;;4972414;28;20073;-85
2022/06/19 00:18:30;;;;;;;12.27;2.47;;;22.50;63.40;;;;;;4981536;28;20026;-87
2022/06/19 00:20:59;;;;;;;10.70;2.60;;;22.50;63.70;;;;;;4974886;28;20031;-85
2022/06/19 00:23:24;;;;;;;9.85;2.47;;;22.40;63.60;;;;;;4972098;28;20018;-85
2022/06/19 00:25:50;;;;;;;11.30;2.72;;;22.40;63.50;;;;;;4973573;28;20122;-86
2022/06/19 00:28:16;;;;;;;12.75;2.88;;;22.40;63.50;;;;;;4987526;28;20020;-85
2022/06/19 00:30:41;;;;;;;10.18;2.40;;;22.30;63.60;;;;;;4957341;28;20031;-86
2022/06/19 00:33:07;;;;;;;9.13;2.13;;;22.30;63.80;;;;;;4973900;28;20038;-85
2022/06/19 00:35:33;;;;;;;11.18;2.70;;;22.20;63.80;;;;;;4972772;28;20106;-86
2022/06/19 00:37:59;;;;;;;9.95;2.50;;;22.20;63.90;;;;;;4972652;28;20027;-86
2022/06/19 00:40:27;;;;;;;11.85;3.03;;;22.10;64.00;;;;;;4973721;28;20027;-86
2022/06/19 00:42:52;;;;;;;9.57;2.28;;;22.10;64.30;;;;;;4973693;28;20015;-86
2022/06/19 00:45:30;;;;;;;12.98;2.50;;;22.10;65.20;;;;;;4964640;28;20429;-86
2022/06/19 00:47:56;;;;;;;9.90;2.40;;;22.00;64.50;;;;;;4973971;28;20031;-86
2022/06/19 00:50:34;;;;;;;11.02;2.58;;;22.00;64.40;;;;;;4974148;28;20470;-86
2022/06/19 00:53:01;;;;;;;10.82;2.30;;;21.90;64.60;;;;;;4985356;28;20037;-86
2022/06/19 00:55:32;;;;;;;10.02;2.67;;;21.90;64.80;;;;;;5010153;28;20115;-86
2022/06/19 00:58:03;;;;;;;;;;;21.90;64.90;;;;;;5048051;28;20037;-85
2022/06/19 01:00:31;;;;;;;10.93;2.67;;;21.80;64.80;;;;;;5070207;28;19894;-87
2022/06/19 01:03:05;;;;;;;10.88;2.40;;;21.70;64.90;;;;;;4998010;28;20047;-86
2022/06/19 01:05:32;;;;;;;10.32;3.00;;;21.70;64.90;;;;;;5010156;28;20069;-85
2022/06/19 01:08:00;;;;;;;12.32;3.13;;;21.70;64.90;;;;;;5056543;28;20102;-84
2022/06/19 01:10:26;;;;;;;12.38;2.72;;;21.70;65.00;;;;;;4997517;28;20011;-87
2022/06/19 01:12:52;;;;;;;10.55;2.53;;;21.60;65.10;;;;;;4981650;28;20027;-86
2022/06/19 01:15:24;;;;;;;11.90;2.50;;;21.60;65.10;;;;;;4983783;28;20041;-85
2022/06/19 01:17:54;;;;;;;11.80;2.83;;;21.50;65.30;;;;;;4975263;28;20058;-86
2022/06/19 01:20:20;;;;;;;10.05;2.83;;;21.50;65.30;;;;;;4973301;28;20023;-86
2022/06/19 01:23:06;;;;;;;11.40;2.75;;;21.50;65.20;;;;;;4973287;28;20031;-85
2022/06/19 01:25:35;;;;;;;10.65;2.85;;;21.40;65.20;;;;;;4974167;28;20030;-85
2022/06/19 01:30:52;;;;;;;9.23;2.70;;;21.30;65.20;;;;;;4992147;28;20045;-85
2022/06/19 01:33:26;;;;;;;10.98;2.63;;;21.30;65.20;;;;;;4997599;28;20024;-86
2022/06/19 01:35:53;;;;;;;11.43;2.42;;;21.30;65.30;;;;;;5001157;28;20432;-85
2022/06/19 01:38:22;;;;;;;12.10;2.30;;;21.20;65.00;;;;;;5018876;28;20038;-85
2022/06/19 01:40:54;;;;;;;7.32;1.77;;;21.20;65.00;;;;;;4972166;28;20054;-85
2022/06/19 01:43:20;;;;;;;10.00;2.40;;;21.10;64.80;;;;;;4972751;28;20437;-85
2022/06/19 01:45:52;;;;;;;8.95;2.40;;;21.10;64.60;;;;;;5045280;28;20052;-85
2022/06/19 01:48:22;;;;;;;9.23;2.58;;;21.00;64.20;;;;;;4973994;28;20569;-85
2022/06/19 01:50:48;;;;;;;8.38;2.13;;;21.00;64.00;;;;;;4972150;28;20037;-85
2022/06/19 01:53:19;;;;;;;12.13;2.63;;;21.00;63.70;;;;;;4971994;28;20022;-85
2022/06/19 01:55:47;;;;;;;7.57;2.05;;;20.90;63.60;;;;;;4972204;28;20076;-85
2022/06/19 01:58:14;;;;;;;9.93;2.80;;;20.90;63.10;;;;;;4972573;28;20473;-85
2022/06/19 02:00:43;;;;;;;9.15;2.50;;;20.90;62.80;;;;;;4973557;28;20014;-85
2022/06/19 02:03:16;;;;;;;5.40;1.67;;;20.80;62.60;;;;;;4973405;28;20023;-85
2022/06/19 02:05:43;;;;;;;10.65;2.20;;;20.80;62.50;;;;;;4973620;28;20071;-85
2022/06/19 02:08:09;;;;;;;11.15;2.33;;;20.70;62.20;;;;;;4954652;28;20024;-85
2022/06/19 02:10:40;;;;;;;9.82;2.35;;;20.70;62.00;;;;;;4955994;28;20034;-84
2022/06/19 02:13:08;;;;;;;6.40;1.77;;;20.70;61.90;;;;;;4972069;28;20125;-85
2022/06/19 02:15:35;;;;;;;6.47;2.38;;;20.60;61.60;;;;;;4972997;28;20486;-85
2022/06/19 02:18:05;;;;;;;10.98;2.47;;;20.60;61.50;;;;;;4984615;28;20034;-85
2022/06/19 02:20:30;;;;;;;7.03;1.70;;;20.60;61.30;;;;;;4974074;28;20023;-86
2022/06/19 02:22:57;;;;;;;7.88;2.08;;;20.50;61.00;;;;;;4988177;28;20037;-85
2022/06/19 02:25:23;;;;;;;12.75;2.47;;;20.50;60.80;;;;;;4955268;28;20406;-85
2022/06/19 02:27:51;;;;;;;8.93;2.25;;;20.50;60.70;;;;;;4987004;28;20042;-85
2022/06/19 02:30:17;;;;;;;6.88;1.85;;;20.40;60.50;;;;;;4973075;28;20027;-85
2022/06/19 02:32:45;;;;;;;7.93;2.10;;;20.40;60.40;;;;;;4972126;28;20097;-85
2022/06/19 02:35:24;;;;;;;9.18;1.90;;;20.40;60.50;;;;;;4971713;28;20030;-85
2022/06/19 02:37:53;;;;;;;10.38;1.63;;;20.30;60.80;;;;;;5044336;28;20032;-85
2022/06/19 02:40:30;;;;;;;7.28;1.60;;;20.30;61.10;;;;;;4973105;28;20045;-85
2022/06/19 02:42:55;;;;;;;9.45;2.33;;;20.30;61.20;;;;;;4972565;28;20105;-85
2022/06/19 02:45:27;;;;;;;10.43;2.40;;;20.30;61.50;;;;;;4972703;28;20056;-86
2022/06/19 02:47:54;;;;;;;9.27;2.10;;;20.20;61.90;;;;;;4987709;28;20049;-86
2022/06/19 02:50:25;;;;;;;9.55;1.70;;;20.20;62.10;;;;;;4971639;28;20027;-85
2022/06/19 02:52:51;;;;;;;;;;;20.20;62.70;;;;;;4973181;28;20051;-85
2022/06/19 02:55:21;;;;;;;8.45;1.67;;;20.20;63.40;;;;;;4972182;28;19945;-85
2022/06/19 02:57:48;;;;;;;10.02;2.33;;;20.10;63.20;;;;;;4954547;28;20502;-84
2022/06/19 03:00:23;;;;;;;8.15;1.90;;;20.10;63.40;;;;;;4951978;28;20029;-84
2022/06/19 03:03:00;;;;;;;8.73;2.00;;;20.10;63.60;;;;;;4959072;28;20023;-85
2022/06/19 03:05:29;;;;;;;9.60;2.00;;;20.00;63.80;;;;;;4971524;28;20026;-84
2022/06/19 03:07:54;;;;;;;10.13;2.33;;;20.00;63.90;;;;;;4970620;28;20023;-85
2022/06/19 03:10:20;;;;;;;10.60;1.90;;;20.00;63.90;;;;;;4955070;28;20023;-85
2022/06/19 03:12:46;;;;;;;9.98;2.00;;;20.00;64.70;;;;;;4990478;28;20027;-85
2022/06/19 03:15:14;;;;;;;10.30;2.05;;;19.90;64.20;;;;;;5036645;28;20391;-84
2022/06/19 03:17:41;;;;;;;8.90;1.80;;;19.90;64.30;;;;;;5011921;28;20026;-84
2022/06/19 03:20:10;;;;;;;9.77;2.47;;;19.90;64.40;;;;;;4975002;28;20044;-85
2022/06/19 03:22:36;;;;;;;6.78;1.88;;;19.90;64.70;;;;;;4981481;28;20140;-85
2022/06/19 03:25:02;;;;;;;8.68;1.67;;;19.90;64.90;;;;;;4954790;28;20118;-84
2022/06/19 03:27:27;;;;;;;7.70;1.70;;;19.80;64.90;;;;;;4998137;28;20033;-85
2022/06/19 03:29:53;;;;;;;7.15;1.67;;;19.70;64.90;;;;;;5052560;28;20045;-85
2022/06/19 03:32:19;;;;;;;8.48;2.00;;;19.80;65.00;;;;;;4977411;28;20424;-85
2022/06/19 03:34:47;;;;;;;5.43;1.70;;;19.70;64.90;;;;;;4974524;28;20034;-85
2022/06/19 03:37:13;;;;;;;5.32;1.63;;;19.70;64.90;;;;;;4971890;28;20058;-85
2022/06/19 03:39:39;;;;;;;8.88;1.88;;;19.70;65.00;;;;;;4972141;28;20455;-85
2022/06/19 03:42:06;;;;;;;7.90;1.83;;;19.60;64.90;;;;;;4971020;28;20035;-85
2022/06/19 03:44:32;;;;;;;11.07;1.80;;;19.60;64.80;;;;;;4971971;28;20027;-85
2022/06/19 03:46:58;;;;;;;8.43;1.77;;;19.60;64.90;;;;;;4954837;28;20027;-86
2022/06/19 03:49:23;;;;;;;8.90;1.42;;;19.60;64.90;;;;;;4972582;28;20076;-85
2022/06/19 03:51:49;;;;;;;5.25;1.50;;;19.60;65.10;;;;;;4976352;28;20019;-85
2022/06/19 03:54:15;;;;;;;9.38;1.90;;;19.50;65.30;;;;;;4973586;28;20050;-86
2022/06/19 03:56:41;;;;;;;6.45;1.33;;;19.50;65.80;;;;;;4973801;28;20035;-85
2022/06/19 03:59:10;;;;;;;10.02;2.15;;;19.50;65.90;;;;;;5039181;28;20034;-85
2022/06/19 04:01:37;;;;;;;9.10;2.00;;;19.50;66.00;;;;;;4973810;28;20031;-85
2022/06/19 04:04:04;;;;;;;9.27;1.83;;;19.50;66.40;;;;;;4972793;28;20073;-86
2022/06/19 04:06:32;;;;;;;9.55;2.33;;;19.40;66.50;;;;;;4972783;28;20034;-85
2022/06/19 04:08:59;;;;;;;10.32;1.67;;;19.40;66.70;;;;;;4969874;28;20057;-86
2022/06/19 04:11:26;;;;;;;8.40;1.63;;;19.40;66.80;;;;;;4957959;28;20023;-86
2022/06/19 04:13:53;;;;;;;8.25;1.60;;;19.40;66.80;;;;;;4973503;28;20019;-85
2022/06/19 04:16:25;;;;;;;8.88;1.80;;;19.30;67.00;;;;;;4963445;28;20035;-85
2022/06/19 04:18:53;;;;;;;11.52;2.00;;;19.30;67.30;;;;;;4986094;28;20045;-85
2022/06/19 04:21:21;;;;;;;6.25;1.67;;;19.30;67.40;;;;;;4991811;28;20027;-85
2022/06/19 04:23:49;;;;;;;9.82;1.77;;;19.30;67.50;;;;;;4994370;28;20075;-84
2022/06/19 04:26:17;;;;;;;10.27;2.22;;;19.20;67.60;;;;;;4978396;28;20040;-84
2022/06/19 04:28:43;;;;;;;11.63;2.10;;;19.30;67.70;;;;;;4973827;28;20027;-85
2022/06/19 04:31:09;;;;;;;6.93;1.27;;;19.30;68.00;;;;;;4985311;28;20030;-85
2022/06/19 04:33:38;;;;;;;8.85;2.00;;;19.20;68.30;;;;;;4975952;28;20019;-84
2022/06/19 04:36:06;;;;;;;6.88;1.73;;;19.20;68.30;;;;;;4976771;28;20134;-84
2022/06/19 04:38:33;;;;;;;10.38;2.10;;;19.20;68.40;;;;;;4993370;28;20026;-84
2022/06/19 04:40:58;;;;;;;10.45;2.05;;;19.10;68.40;;;;;;5013437;28;20015;-85
2022/06/19 04:43:24;;;;;;;8.43;1.75;;;19.10;68.40;;;;;;4997949;28;20088;-85
2022/06/19 04:45:50;;;;;;;10.00;2.00;;;19.10;68.60;;;;;;4994749;28;20061;-86
2022/06/19 04:48:19;;;;;;;11.52;2.17;;;19.10;68.40;;;;;;4971152;28;20019;-83
2022/06/19 04:50:45;;;;;;;9.65;1.73;;;19.10;68.40;;;;;;5001644;28;20057;-86
2022/06/19 04:53:10;;;;;;;8.43;1.80;;;19.10;68.10;;;;;;4999608;28;20109;-85
2022/06/19 04:55:36;;;;;;;8.38;1.88;;;19.10;67.60;;;;;;5002136;28;20022;-84
2022/06/19 04:58:03;;;;;;;8.60;1.95;;;19.00;67.60;;;;;;4983489;28;20030;-86
2022/06/19 05:00:30;;;;;;;10.35;1.60;;;19.00;67.90;;;;;;4972409;28;20026;-84
2022/06/19 05:02:56;;;;;;;9.13;1.42;;;19.00;68.00;;;;;;4971778;28;20058;-85
2022/06/19 05:05:23;;;;;;;9.20;2.45;;;19.00;68.00;;;;;;4962059;28;20066;-86
2022/06/19 05:07:49;;;;;;;6.20;1.75;;;19.00;68.40;;;;;;4975773;28;20027;-86
2022/06/19 05:10:17;;;;;;;17.75;2.33;;;19.00;68.60;;;;;;4956437;28;20072;-85
2022/06/19 05:12:43;;;;;;;12.35;2.97;;;18.90;68.80;;;;;;4974635;28;20076;-85
2022/06/19 05:15:10;;;;;;;11.68;1.80;;;18.90;69.00;;;;;;4986565;28;20428;-86
2022/06/19 05:17:36;;;;;;;12.60;2.15;;;18.90;69.20;;;;;;4956707;28;20031;-85
2022/06/19 05:20:03;;;;;;;9.32;1.70;;;18.90;69.10;;;;;;4972970;28;20528;-85
2022/06/19 05:22:30;;;;;;;9.45;2.42;;;18.90;69.40;;;;;;4964885;28;20034;-84
2022/06/19 05:24:56;;;;;;;10.55;1.75;;;18.90;69.70;;;;;;4961977;28;20390;-84
2022/06/19 05:27:22;;;;;;;9.77;2.30;;;18.90;69.70;;;;;;4972784;28;20019;-84
2022/06/19 05:29:48;;;;;;;10.52;2.05;;;18.90;69.70;;;;;;4972832;28;20034;-84
2022/06/19 05:32:13;;;;;;;7.18;1.52;;;18.80;69.50;;;;;;4972836;28;20055;-85
2022/06/19 05:34:39;;;;;;;11.15;1.95;;;18.80;70.30;;;;;;4954460;28;20475;-85
2022/06/19 05:37:05;;;;;;;7.47;1.92;;;18.80;70.10;;;;;;4972489;28;20043;-85
2022/06/19 05:39:31;;;;;;;5.93;1.60;;;18.80;70.10;;;;;;4956692;28;20027;-85
2022/06/19 05:41:57;;;;;;;5.75;1.67;;;18.90;70.00;;;;;;4974977;28;20030;-85
2022/06/19 05:44:28;;;;;;;6.90;1.83;;;18.90;70.10;;;;;;4972569;28;20054;-85
2022/06/19 05:46:54;;;;;;;6.50;1.63;;;18.90;70.30;;;;;;4973860;28;20031;-85
2022/06/19 05:49:20;;;;;;;8.68;1.92;;;18.90;70.40;;;;;;4956255;28;20085;-85
2022/06/19 05:51:46;;;;;;;6.47;1.50;;;19.00;70.90;;;;;;4974060;28;20106;-85
2022/06/19 05:54:12;;;;;;;7.38;1.80;;;19.00;71.10;;;;;;4972202;28;20071;-85
2022/06/19 05:56:37;;;;;;;7.47;1.77;;;19.00;71.30;;;;;;4981914;28;20035;-85
2022/06/19 05:59:03;;;;;;;6.88;1.58;;;19.10;71.50;;;;;;4999959;28;20450;-85
2022/06/19 06:01:29;;;;;;;7.70;1.35;;;19.10;71.30;;;;;;4960311;28;20031;-85
2022/06/19 06:03:56;;;;;;;7.07;1.90;;;19.10;71.30;;;;;;4953274;28;20115;-85
2022/06/19 06:06:29;;;;;;;6.93;1.40;;;19.20;71.50;;;;;;4972141;28;20046;-84
2022/06/19 06:08:55;;;;;;;8.02;1.92;;;19.20;71.20;;;;;;4971482;28;20026;-85
2022/06/19 06:11:22;;;;;;;6.57;1.20;;;19.20;70.90;;;;;;4970776;28;20057;-85
2022/06/19 06:13:48;;;;;;;8.63;2.17;;;19.30;70.60;;;;;;4972172;28;20126;-84
2022/06/19 06:16:17;;;;;;;7.20;1.83;;;19.30;70.50;;;;;;4955795;28;20035;-84
2022/06/19 06:18:43;;;;;;;7.00;1.60;;;19.30;70.60;;;;;;4970205;28;20026;-84
2022/06/19 06:21:14;;;;;;;9.93;1.55;;;19.30;70.80;;;;;;4955652;28;20118;-84
2022/06/19 06:23:41;;;;;;;7.93;1.67;;;19.40;70.30;;;;;;4971870;28;20023;-85
2022/06/19 06:26:27;;;;;;;5.40;1.17;;;19.40;70.00;;;;;;4949108;28;20027;-85
2022/06/19 06:28:55;;;;;;;6.18;1.63;;;19.40;69.40;;;;;;4973316;28;20023;-85
2022/06/19 06:31:21;;;;;;;5.45;1.55;;;19.40;68.80;;;;;;4972906;28;20033;-85
2022/06/19 06:33:47;;;;;;;4.20;1.05;;;19.50;68.20;;;;;;4972109;28;20105;-85
2022/06/19 06:36:13;;;;;;;4.30;1.27;;;19.50;67.60;;;;;;4954584;28;20433;-85
2022/06/19 06:38:39;;;;;;;4.88;1.30;;;19.50;67.30;;;;;;4955582;28;20027;-85
2022/06/19 06:41:07;;;;;;;5.25;1.17;;;19.50;66.60;;;;;;4971570;28;20026;-85
2022/06/19 06:43:39;;;;;;;5.22;1.30;;;19.50;66.30;;;;;;4971432;28;20015;-85
2022/06/19 06:46:12;;;;;;;5.43;1.67;;;19.50;66.20;;;;;;4972917;28;20035;-85
2022/06/19 06:48:38;;;;;;;7.13;1.42;;;19.50;65.90;;;;;;4971403;28;20029;-85
2022/06/19 06:51:08;;;;;;;5.30;1.30;;;19.50;65.60;;;;;;4946756;28;20457;-85
2022/06/19 06:53:34;;;;;;;;;;;19.50;65.50;;;;;;4982718;28;20114;-85
2022/06/19 06:56:00;;;;;;;4.97;1.30;;;19.50;65.70;;;;;;4971551;28;19993;-85
2022/06/19 06:58:26;;;;;;;6.20;1.67;;;19.50;65.50;;;;;;4955181;28;20038;-85
2022/06/19 07:00:51;;;;;;;9.27;2.25;;;19.50;65.60;;;;;;4952992;28;20057;-84
2022/06/19 07:03:17;;;;;;;4.53;1.15;;;19.60;66.00;;;;;;4961578;28;20452;-86
2022/06/19 07:05:43;;;;;;;6.43;2.00;;;19.60;66.20;;;;;;4978958;28;20114;-85
2022/06/19 07:08:08;;;;;;;6.22;1.80;;;19.60;66.50;;;;;;4985188;28;20031;-85
2022/06/19 07:10:34;;;;;;;7.38;1.25;;;19.50;66.40;;;;;;4971250;28;20318;-85
2022/06/19 07:13:00;;;;;;;7.00;1.48;;;19.50;66.50;;;;;;4954501;28;20036;-85
2022/06/19 07:15:26;;;;;;;7.63;1.90;;;19.50;66.80;;;;;;4956177;28;20451;-85
2022/06/19 07:17:52;;;;;;;6.72;1.60;;;19.50;66.90;;;;;;4971768;28;20509;-85
2022/06/19 07:20:19;;;;;;;6.45;1.55;;;19.50;67.20;;;;;;4955450;28;20027;-85
2022/06/19 07:22:45;;;;;;;6.38;1.55;;;19.50;67.70;;;;;;4973352;28;20038;-85
2022/06/19 07:25:17;;;;;;;6.15;1.55;;;19.50;68.10;;;;;;4973192;28;20482;-85
2022/06/19 07:27:43;;;;;;;7.30;1.90;;;19.50;68.70;;;;;;4973213;28;20104;-84
2022/06/19 07:30:14;;;;;;;8.48;1.80;;;19.50;69.80;;;;;;5001654;28;20484;-84
2022/06/19 07:32:39;;;;;;;6.97;2.03;;;19.50;71.30;;;;;;5029067;28;20106;-85
2022/06/19 07:35:07;;;;;;;8.02;1.88;;;19.50;72.40;;;;;;4957452;28;20534;-84
2022/06/19 07:37:32;;;;;;;9.13;1.80;;;19.50;73.10;;;;;;4997754;28;20055;-85
2022/06/19 07:39:58;;;;;;;10.82;1.83;;;19.50;73.90;;;;;;5073022;28;20031;-85
2022/06/19 07:42:23;;;;;;;9.85;1.90;;;19.50;74.90;;;;;;4960594;28;20027;-85
2022/06/19 07:44:49;;;;;;;9.45;2.28;;;19.50;75.50;;;;;;4979037;28;20031;-86
2022/06/19 07:50:15;;;;;;;13.57;2.40;;;19.50;76.90;;;;;;4985855;28;20099;-83
2022/06/19 07:52:43;;;;;;;11.55;2.55;;;19.40;77.60;;;;;;4974998;28;20053;-83
2022/06/19 07:55:11;;;;;;;13.25;2.60;;;19.40;78.10;;;;;;4971808;28;20031;-83
2022/06/19 07:57:40;;;;;;;12.13;2.30;;;19.40;78.30;;;;;;4984418;28;20044;-83
2022/06/19 08:00:09;;;;;;;13.13;2.30;;;19.30;78.60;;;;;;4955229;28;20395;-83
2022/06/19 08:02:35;;;;;;;11.30;2.67;;;19.30;79.00;;;;;;4971326;28;20110;-83
2022/06/19 08:05:01;;;;;;;8.88;2.30;;;19.30;79.60;;;;;;4987292;28;20058;-84
2022/06/19 08:07:28;;;;;;;11.05;2.50;;;19.20;80.20;;;;;;4973196;28;20048;-86
2022/06/19 08:09:54;;;;;;;15.30;2.80;;;19.20;81.00;;;;;;4971259;28;20019;-86
2022/06/19 08:12:20;;;;;;;12.73;3.17;;;19.20;81.90;;;;;;4960848;28;20038;-85
2022/06/19 08:14:49;;;;;;;11.98;2.50;;;19.20;83.00;;;;;;4980779;28;20027;-87
2022/06/19 08:17:15;;;;;;;16.67;3.22;;;19.20;83.70;;;;;;4982883;28;20088;-84
2022/06/19 08:19:41;;;;;;;12.77;2.47;;;19.20;84.60;;;;;;4971538;28;20030;-86
2022/06/19 08:22:06;;;;;;;10.90;2.72;;;19.20;85.40;;;;;;4972802;28;20019;-86
2022/06/19 08:24:32;;;;;;;11.43;2.70;;;19.20;86.10;;;;;;5065502;28;20038;-86
2022/06/19 08:27:02;;;;;;;13.30;2.80;;;19.20;86.90;;;;;;5037763;28;20066;-87
2022/06/19 08:29:29;;;;;;;13.25;2.70;;;19.20;87.70;;;;;;5059790;28;20014;-86
2022/06/19 08:31:55;;;;;;;9.35;2.30;;;19.10;88.40;;;;;;4994927;28;20011;-86
2022/06/19 08:34:21;;;;;;;12.40;3.17;;;19.10;89.60;;;;;;4994254;28;20042;-87
2022/06/19 08:36:47;;;;;;;9.55;2.20;;;19.10;90.20;;;;;;4992530;28;20057;-86
2022/06/19 08:39:16;;;;;;;10.20;2.20;;;19.10;90.80;;;;;;4979179;28;20029;-87
2022/06/19 08:42:04;;;;;;;10.52;2.08;;;19.10;91.30;;;;;;4995108;28;20125;-86
2022/06/19 08:44:45;;;;;;;10.27;2.25;;;19.10;91.80;;;;;;4972170;28;20076;-86
2022/06/19 08:47:48;;;;;;;11.35;2.00;;;19.00;92.40;;;;;;4973748;28;20378;-86
2022/06/19 08:50:32;;;;;;;10.48;2.17;;;19.00;92.60;;;;;;4988271;28;20462;-86
2022/06/19 08:53:19;;;;;;;10.45;1.95;;;19.00;93.00;;;;;;4977116;28;20019;-86
2022/06/19 08:56:09;;;;;;;9.77;2.42;;;18.90;93.30;;;;;;4973683;28;20120;-86
2022/06/19 08:58:55;;;;;;;10.55;2.65;;;18.90;93.80;;;;;;4974502;28;20080;-86
2022/06/19 09:01:47;;;;;;;10.77;2.58;;;18.90;94.00;;;;;;4972051;28;20336;-86
2022/06/19 09:07:31;;;;;;;11.68;2.00;;;18.80;94.40;;;;;;4971764;28;20030;-86
2022/06/19 09:10:02;;;;;;;9.15;2.10;;;18.80;94.80;;;;;;4972930;28;20492;-86
2022/06/19 09:13:16;;;;;;;11.55;2.45;;;18.80;95.00;;;;;;4973114;28;20117;-86
2022/06/19 09:15:48;;;;;;;9.43;2.05;;;18.80;95.30;;;;;;5030704;28;20057;-87
2022/06/19 09:18:48;;;;;;;9.98;2.20;;;18.80;95.70;;;;;;4998276;28;20016;-86
2022/06/19 09:21:49;;;;;;;10.63;2.53;;;18.70;95.80;;;;;;5030380;28;20377;-86
2022/06/19 09:24:56;;;;;;;9.57;2.00;;;18.70;96.20;;;;;;4973065;28;20062;-86
2022/06/19 09:27:34;;;;;;;11.30;2.38;;;18.70;96.60;;;;;;4994686;28;20163;-85
2022/06/19 09:30:24;;;;;;;6.13;2.03;;;18.80;97.20;;;;;;5022367;28;20019;-86
2022/06/19 09:33:01;;;;;;;9.38;1.98;;;18.80;97.50;;;;;;5031051;28;20031;-85
2022/06/19 09:35:49;;;;;;;8.00;2.03;;;18.80;97.80;;;;;;5004293;28;20021;-86
2022/06/19 09:38:25;;;;;;;10.90;2.50;;;18.80;97.90;;;;;;5016991;28;20042;-86
2022/06/19 09:40:55;;;;;;;8.52;2.25;;;18.90;98.10;;;;;;4973170;28;20023;-85
2022/06/19 09:43:33;;;;;;;8.90;1.80;;;18.90;98.20;;;;;;4990906;28;20527;-87
2022/06/19 09:46:09;;;;;;;9.23;1.95;;;18.90;98.30;;;;;;5004469;28;20034;-87
2022/06/19 09:48:57;;;;;;;8.10;2.22;;;18.90;98.40;;;;;;4991521;28;20018;-86
2022/06/19 09:51:57;;;;;;;9.93;2.40;;;18.90;98.40;;;;;;5009898;28;20464;-88
2022/06/19 09:54:32;;;;;;;6.43;1.45;;;19.00;98.40;;;;;;4973031;28;20027;-86
2022/06/19 09:57:18;;;;;;;8.40;2.42;;;19.00;98.60;;;;;;4995491;28;20021;-87
2022/06/19 10:00:05;;;;;;;8.93;1.88;;;19.10;98.80;;;;;;5001436;28;20109;-87
2022/06/19 10:02:56;;;;;;;5.68;1.45;;;19.10;98.70;;;;;;5071291;28;20040;-86
2022/06/19 10:05:36;;;;;;;8.13;1.55;;;19.10;98.90;;;;;;5046119;28;20060;-87
2022/06/19 10:08:23;;;;;;;5.40;1.60;;;19.20;98.80;;;;;;4976159;28;20018;-87
2022/06/19 10:11:01;;;;;;;6.68;1.83;;;19.20;98.70;;;;;;4973280;28;20105;-86
2022/06/19 10:13:38;;;;;;;6.57;1.25;;;19.30;98.90;;;;;;4990371;28;20015;-86
2022/06/19 10:16:16;;;;;;;8.13;1.60;;;19.30;98.60;;;;;;5069935;28;20070;-85
2022/06/19 10:18:46;;;;;;;6.95;1.60;;;19.30;98.50;;;;;;5082026;28;20472;-86
2022/06/19 10:24:15;;;;;;;5.82;1.25;;;19.40;98.10;;;;;;4983222;28;20041;-86
2022/06/19 10:27:09;;;;;;;8.65;1.65;;;19.40;98.00;;;;;;5041421;28;20023;-86
2022/06/19 10:29:41;;;;;;;6.30;1.40;;;19.40;97.60;;;;;;4993067;28;20095;-86
2022/06/19 10:32:21;;;;;;;5.50;1.70;;;19.40;97.60;;;;;;4981113;28;20019;-86
2022/06/19 10:35:12;;;;;;;4.13;1.30;;;19.50;97.50;;;;;;4990481;28;20082;-87
2022/06/19 10:37:56;;;;;;;5.18;1.35;;;19.50;97.40;;;;;;4976810;28;20043;-86
2022/06/19 10:40:31;;;;;;;5.90;1.35;;;19.50;97.40;;;;;;4981482;28;20458;-86
2022/06/19 10:42:59;;;;;;;5.10;1.70;;;19.50;97.00;;;;;;4980534;28;20395;-87
2022/06/19 10:45:37;;;;;;;6.35;2.15;;;19.50;96.70;;;;;;4971591;28;20034;-86
2022/06/19 10:48:02;;;;;;;3.05;0.90;;;19.60;96.60;;;;;;4971080;28;20019;-86
2022/06/19 10:50:46;;;;;;;5.35;1.42;;;19.60;96.80;;;;;;4996798;28;20028;-85
2022/06/19 10:54:01;;;;;;;4.28;1.42;;;19.60;96.80;;;;;;4970736;28;20031;-85
2022/06/19 10:57:01;;;;;;;5.25;1.23;;;19.70;97.10;;;;;;4974004;28;20079;-85
2022/06/19 10:59:27;;;;;;;7.40;1.75;;;19.70;97.40;;;;;;4972988;28;20025;-86
2022/06/19 11:05:05;;;;;;;7.63;1.83;;;19.90;97.70;;;;;;4959365;28;20065;-85
2022/06/19 11:07:31;;;;;;;7.45;1.88;;;19.90;97.60;;;;;;4971294;28;20019;-86
2022/06/19 11:10:06;;;;;;;6.13;1.98;;;20.00;97.70;;;;;;4971634;28;20053;-86
2022/06/19 11:12:56;;;;;;;8.32;2.17;;;20.00;97.60;;;;;;4971508;28;20027;-85
2022/06/19 11:15:24;;;;;;;6.17;1.87;;;20.10;97.50;;;;;;4980592;28;20030;-86
2022/06/19 11:18:16;;;;;;;5.88;1.67;;;20.20;97.60;;;;;;4976746;28;20027;-85
2022/06/19 11:21:06;;;;;;;5.95;1.85;;;20.20;97.60;;;;;;4982003;28;20504;-85
2022/06/19 11:23:39;;;;;;;9.43;2.33;;;20.30;97.80;;;;;;4974028;28;20011;-86
2022/06/19 11:26:12;;;;;;;7.53;1.77;;;20.30;97.90;;;;;;4972781;28;20019;-86
2022/06/19 11:28:44;;;;;;;6.70;2.03;;;20.40;98.00;;;;;;4987631;28;20030;-86
2022/06/19 11:31:23;;;;;;;8.35;2.10;;;20.40;97.80;;;;;;5040094;28;20040;-86
2022/06/19 11:33:53;;;;;;;13.40;2.55;;;20.50;97.80;;;;;;4959920;28;20083;-86
2022/06/19 11:36:51;;;;;;;9.35;2.80;;;20.50;97.80;;;;;;4974695;28;20482;-87
2022/06/19 11:39:36;;;;;;;8.45;2.08;;;20.60;97.70;;;;;;4994728;28;20106;-86
2022/06/19 11:42:20;;;;;;;8.55;2.28;;;20.70;97.70;;;;;;4983353;28;20057;-86
2022/06/19 11:44:51;;;;;;;8.13;2.10;;;20.70;97.60;;;;;;4960180;28;20023;-86
2022/06/19 11:47:23;;;;;;;7.72;2.05;;;20.80;97.70;;;;;;4973396;28;20015;-86
2022/06/19 11:49:50;;;;;;;5.85;1.90;;;20.80;97.50;;;;;;4983394;28;20030;-86
2022/06/19 11:52:24;;;;;;;7.35;2.00;;;20.90;97.20;;;;;;4976596;28;20054;-86
2022/06/19 11:54:51;;;;;;;9.30;2.28;;;20.90;97.10;;;;;;4980098;28;20023;-86
2022/06/19 11:57:28;;;;;;;9.27;2.10;;;21.00;97.10;;;;;;4978611;28;20062;-85
2022/06/19 11:59:56;;;;;;;6.70;2.05;;;21.10;97.00;;;;;;4970616;28;20106;-86
2022/06/19 12:02:40;;;;;;;7.03;2.22;;;21.10;96.70;;;;;;4977894;28;20399;-86
2022/06/19 12:05:21;;;;;;;7.05;2.20;;;21.20;96.50;;;;;;4982544;28;20520;-85
2022/06/19 12:07:46;;;;;;;5.82;2.20;;;21.20;96.30;;;;;;4991512;28;20066;-86
2022/06/19 12:10:20;;;;;;;8.75;1.88;;;21.20;96.10;;;;;;5004404;28;20037;-87
2022/06/19 12:12:58;;;;;;;8.20;2.38;;;21.20;96.10;;;;;;4997643;28;20026;-84
2022/06/19 12:15:24;;;;;;;8.07;1.67;;;21.30;95.90;;;;;;4995521;28;20019;-86
2022/06/19 12:17:57;;;;;;;6.05;2.38;;;21.30;95.50;;;;;;4994821;28;20018;-87
2022/06/19 12:20:31;;;;;;;7.60;2.20;;;21.30;95.30;;;;;;4995272;28;20019;-86
2022/06/19 12:23:18;;;;;;;5.30;1.83;;;21.30;95.10;;;;;;4995144;28;20013;-86
2022/06/19 12:25:46;;;;;;;9.95;2.17;;;21.30;94.90;;;;;;4992353;28;20027;-85
2022/06/19 12:28:40;;;;;;;7.03;2.47;;;21.40;94.80;;;;;;4986796;28;20455;-84
2022/06/19 12:31:31;;;;;;;8.02;2.50;;;21.40;94.80;;;;;;4970557;28;20470;-85
2022/06/19 12:34:23;;;;;;;7.28;2.25;;;21.40;94.50;;;;;;4977551;28;20018;-85
2022/06/19 12:36:48;;;;;;;8.63;2.45;;;21.40;94.30;;;;;;4979484;28;20478;-87
2022/06/19 12:39:18;;;;;;;8.77;2.15;;;21.40;94.00;;;;;;4978200;28;20034;-86
2022/06/19 12:41:55;;;;;;;12.02;2.90;;;21.40;93.80;;;;;;5033243;28;20023;-86
2022/06/19 12:44:39;;;;;;;10.70;2.75;;;21.40;93.70;;;;;;4970217;28;20066;-85
2022/06/19 12:47:27;;;;;;;9.75;2.70;;;21.30;93.70;;;;;;4984640;28;20030;-85
2022/06/19 12:50:01;;;;;;;9.77;2.13;;;21.30;93.50;;;;;;4971154;28;20019;-85
2022/06/19 12:52:48;;;;;;;8.98;2.50;;;21.30;93.40;;;;;;4970988;28;20080;-86
2022/06/19 12:55:24;;;;;;;9.55;2.50;;;21.30;93.30;;;;;;4970202;28;20536;-85
2022/06/19 12:58:12;;;;;;;7.50;2.00;;;21.30;93.10;;;;;;4957704;28;20034;-85
2022/06/19 13:00:45;;;;;;;8.82;2.53;;;21.20;92.90;;;;;;4983560;28;20069;-86
2022/06/19 13:03:38;;;;;;;10.15;2.22;;;21.20;92.90;;;;;;4975061;28;20085;-85
2022/06/19 13:06:28;;;;;;;9.80;2.15;;;21.20;92.90;;;;;;4959670;28;20027;-85
2022/06/19 13:09:02;;;;;;;9.35;2.25;;;21.20;92.90;;;;;;4979351;28;20046;-86
2022/06/19 13:11:37;;;;;;;7.78;2.13;;;21.30;92.90;;;;;;4977029;28;20185;-85
2022/06/19 13:14:30;;;;;;;6.45;2.20;;;21.30;92.90;;;;;;4970381;28;20050;-85
2022/06/19 13:17:27;;;;;;;5.25;1.60;;;21.40;92.80;;;;;;4973420;28;20451;-84
2022/06/19 13:20:11;;;;;;;8.30;1.77;;;21.40;92.60;;;;;;4982404;28;20419;-85
2022/06/19 13:22:49;;;;;;;9.15;1.80;;;21.40;92.50;;;;;;4971804;28;20045;-85
2022/06/19 13:25:40;;;;;;;5.25;1.95;;;21.50;92.40;;;;;;4972040;28;20023;-85